createdAt,value
2022-11-30T00:01:51.530Z,6.57
2022-11-30T00:04:19.552Z,8.30
2022-11-30T00:06:48.788Z,6.50
2022-11-30T00:09:16.694Z,7.88
2022-11-30T00:11:44.637Z,6.72
2022-11-30T00:14:12.539Z,8.15
2022-11-30T00:16:41.065Z,7.63
2022-11-30T00:19:09.028Z,7.40
2022-11-30T00:21:37.409Z,8.75
2022-11-30T00:24:08.083Z,7.30
2022-11-30T00:26:36.546Z,6.65
2022-11-30T00:29:05.115Z,8.50
2022-11-30T00:31:33.495Z,7.53
2022-11-30T00:34:01.456Z,8.23
2022-11-30T00:36:29.539Z,7.90
2022-11-30T00:38:57.586Z,6.72
2022-11-30T00:41:26.950Z,5.88
2022-11-30T00:43:54.877Z,7.95
2022-11-30T00:46:22.724Z,7.10
2022-11-30T00:48:50.651Z,8.80
2022-11-30T00:51:20.340Z,5.72
2022-11-30T00:53:48.728Z,6.78
2022-11-30T00:56:16.999Z,5.40
2022-11-30T00:58:46.323Z,6.47
2022-11-30T01:01:14.321Z,7.07
2022-11-30T01:03:42.687Z,7.57
2022-11-30T01:06:11.713Z,5.38
2022-11-30T01:08:40.027Z,7.03
2022-11-30T01:11:10.459Z,7.18
2022-11-30T01:13:38.514Z,6.03
2022-11-30T01:16:12.603Z,5.60
2022-11-30T01:18:40.572Z,5.53
2022-11-30T01:21:11.089Z,6.20
2022-11-30T01:23:39.026Z,5.75
2022-11-30T01:26:07.567Z,5.57
2022-11-30T01:28:36.354Z,5.40
2022-11-30T01:31:06.178Z,5.38
2022-11-30T01:33:36.125Z,6.05
2022-11-30T01:36:06.564Z,8.73
2022-11-30T01:38:35.720Z,4.72
2022-11-30T01:41:04.735Z,5.38
2022-11-30T01:43:44.210Z,6.30
2022-11-30T01:46:33.449Z,5.80
2022-11-30T01:49:07.814Z,5.47
2022-11-30T01:54:09.666Z,4.93
2022-11-30T01:56:42.833Z,4.88
2022-11-30T01:59:12.052Z,6.47
2022-11-30T02:01:40.081Z,4.50
2022-11-30T02:04:12.815Z,5.95
2022-11-30T02:06:40.981Z,5.47
2022-11-30T02:09:09.413Z,5.80
2022-11-30T02:11:37.434Z,5.55
2022-11-30T02:14:17.002Z,5.50
2022-11-30T02:16:56.739Z,7.20
2022-11-30T02:20:17.369Z,4.97
2022-11-30T02:22:59.335Z,5.60
2022-11-30T02:25:37.694Z,4.68
2022-11-30T02:28:44.650Z,5.18
2022-11-30T02:31:17.932Z,4.47
2022-11-30T02:33:48.653Z,5.07
2022-11-30T02:36:17.927Z,6.38
2022-11-30T02:38:45.977Z,7.65
2022-11-30T02:41:14.293Z,5.15
2022-11-30T02:43:43.664Z,5.97
2022-11-30T02:46:20.237Z,4.38
2022-11-30T02:48:54.391Z,6.97
2022-11-30T02:51:26.260Z,6.07
2022-11-30T02:53:55.638Z,7.10
2022-11-30T02:56:24.518Z,5.70
2022-11-30T02:58:53.881Z,4.90
2022-11-30T03:01:22.209Z,6.63
2022-11-30T03:03:50.227Z,4.95
2022-11-30T03:06:18.334Z,5.57
2022-11-30T03:08:46.168Z,3.95
2022-11-30T03:11:14.094Z,5.65
2022-11-30T03:13:42.172Z,5.88
2022-11-30T03:16:13.904Z,5.43
2022-11-30T03:18:42.268Z,5.72
2022-11-30T03:21:12.161Z,7.72
2022-11-30T03:23:41.127Z,4.55
2022-11-30T03:26:10.408Z,5.55
2022-11-30T03:28:38.580Z,5.30
2022-11-30T03:31:07.140Z,6.70
2022-11-30T03:33:36.582Z,5.15
2022-11-30T03:36:06.971Z,4.28
2022-11-30T03:38:35.270Z,3.85
2022-11-30T03:41:04.867Z,4.07
2022-11-30T03:43:32.697Z,4.03
2022-11-30T03:46:01.352Z,4.57
2022-11-30T03:48:29.441Z,4.05
2022-11-30T03:50:58.911Z,4.32
2022-11-30T03:53:27.021Z,5.22
2022-11-30T03:55:56.569Z,4.82
2022-11-30T03:58:25.775Z,4.57
2022-11-30T04:01:00.368Z,4.38
2022-11-30T04:05:55.930Z,4.22
2022-11-30T04:08:25.296Z,2.55
2022-11-30T04:10:54.013Z,4.15
2022-11-30T04:13:23.113Z,4.40
2022-11-30T04:15:52.751Z,5.88
2022-11-30T04:18:22.158Z,3.83
2022-11-30T04:20:51.845Z,5.28
2022-11-30T04:23:20.618Z,4.45
2022-11-30T04:25:50.284Z,3.85
2022-11-30T04:28:19.284Z,4.85
2022-11-30T04:30:47.409Z,4.95
2022-11-30T04:33:17.494Z,4.30
2022-11-30T04:35:48.517Z,4.57
2022-11-30T04:38:16.715Z,4.97
2022-11-30T04:40:45.623Z,4.53
2022-11-30T04:43:15.321Z,4.35
2022-11-30T04:45:45.066Z,4.78
2022-11-30T04:48:13.079Z,3.92
2022-11-30T04:50:41.064Z,4.65
2022-11-30T04:53:09.648Z,7.70
2022-11-30T04:55:38.145Z,8.73
2022-11-30T04:58:05.931Z,8.60
2022-11-30T05:00:36.387Z,10.73
2022-11-30T05:03:04.920Z,8.02
2022-11-30T05:05:32.775Z,8.60
2022-11-30T05:08:01.080Z,6.95
2022-11-30T05:10:30.545Z,6.63
2022-11-30T05:12:58.651Z,7.47
2022-11-30T05:15:27.338Z,6.22
2022-11-30T05:17:59.832Z,6.70
2022-11-30T05:20:27.810Z,6.57
2022-11-30T05:22:55.827Z,6.28
2022-11-30T05:25:23.788Z,6.85
2022-11-30T05:27:51.691Z,9.30
2022-11-30T05:30:20.025Z,9.38
2022-11-30T05:32:48.275Z,8.52
2022-11-30T05:35:18.062Z,9.10
2022-11-30T05:37:46.569Z,8.73
2022-11-30T05:40:17.982Z,8.95
2022-11-30T05:42:45.898Z,7.85
2022-11-30T05:45:13.762Z,6.80
2022-11-30T05:47:43.275Z,6.95
2022-11-30T05:50:11.272Z,7.03
2022-11-30T05:52:40.509Z,5.82
2022-11-30T05:55:08.996Z,7.78
2022-11-30T05:57:37.649Z,7.65
2022-11-30T06:00:06.669Z,5.50
2022-11-30T06:02:39.521Z,7.30
2022-11-30T06:05:08.433Z,6.82
2022-11-30T06:07:38.474Z,7.00
2022-11-30T06:10:09.163Z,6.30
2022-11-30T06:12:36.904Z,5.30
2022-11-30T06:15:05.478Z,7.10
2022-11-30T06:17:33.430Z,6.63
2022-11-30T06:20:01.429Z,5.97
2022-11-30T06:22:29.473Z,5.70
2022-11-30T06:24:57.264Z,8.07
2022-11-30T06:27:26.677Z,6.10
2022-11-30T06:29:54.891Z,9.02
2022-11-30T06:32:22.761Z,7.38
2022-11-30T06:34:50.482Z,8.18
2022-11-30T06:37:18.326Z,6.53
2022-11-30T06:42:37.408Z,7.30
2022-11-30T06:45:07.084Z,7.38
2022-11-30T06:47:34.976Z,6.78
2022-11-30T06:50:03.224Z,7.63
2022-11-30T06:52:31.628Z,7.55
2022-11-30T06:54:59.623Z,6.30
2022-11-30T06:57:28.473Z,6.15
2022-11-30T06:59:58.121Z,9.88
2022-11-30T07:02:26.061Z,6.28
2022-11-30T07:04:54.093Z,7.70
2022-11-30T07:07:22.200Z,7.22
2022-11-30T07:09:50.810Z,6.75
2022-11-30T07:12:18.820Z,6.28
2022-11-30T07:14:47.070Z,5.45
2022-11-30T07:17:16.458Z,8.05
2022-11-30T07:19:44.235Z,11.50
2022-11-30T07:22:12.020Z,11.50
2022-11-30T07:24:57.194Z,10.35
2022-11-30T07:27:25.451Z,8.68
2022-11-30T07:29:53.717Z,9.02
2022-11-30T07:32:23.060Z,6.82
2022-11-30T07:34:50.973Z,7.45
2022-11-30T07:37:19.459Z,10.90
2022-11-30T07:39:47.411Z,8.23
2022-11-30T07:42:16.987Z,6.78
2022-11-30T07:44:45.080Z,10.93
2022-11-30T07:47:13.139Z,8.23
2022-11-30T07:49:42.281Z,8.13
2022-11-30T07:52:10.129Z,8.30
2022-11-30T07:54:37.880Z,11.52
2022-11-30T07:57:06.413Z,9.57
2022-11-30T07:59:34.359Z,9.95
2022-11-30T08:02:02.324Z,10.07
2022-11-30T08:04:30.231Z,10.52
2022-11-30T08:06:59.422Z,6.90
2022-11-30T08:09:27.256Z,8.52
2022-11-30T08:11:55.068Z,7.95
2022-11-30T08:14:22.810Z,8.93
2022-11-30T08:16:51.858Z,8.48
2022-11-30T08:19:20.057Z,8.38
2022-11-30T08:21:47.914Z,8.20
2022-11-30T08:24:17.309Z,6.63
2022-11-30T08:26:45.463Z,7.30
2022-11-30T08:29:13.406Z,13.80
2022-11-30T08:31:41.179Z,7.15
2022-11-30T08:34:12.817Z,9.35
2022-11-30T08:36:41.729Z,7.63
2022-11-30T08:39:12.343Z,7.57
2022-11-30T08:41:41.587Z,6.75
2022-11-30T08:44:09.795Z,10.27
2022-11-30T08:46:53.915Z,9.25
2022-11-30T08:49:23.911Z,6.53
2022-11-30T08:54:45.523Z,7.35
2022-11-30T08:57:15.212Z,10.00
2022-11-30T08:59:43.043Z,7.18
2022-11-30T09:02:12.259Z,7.15
2022-11-30T09:04:40.365Z,5.55
2022-11-30T09:07:09.493Z,7.15
2022-11-30T09:09:37.767Z,7.53
2022-11-30T09:12:05.917Z,9.27
2022-11-30T09:14:35.393Z,8.90
2022-11-30T09:17:03.319Z,9.25
2022-11-30T09:19:31.270Z,6.53
2022-11-30T09:21:59.200Z,7.57
2022-11-30T09:24:26.933Z,8.60
2022-11-30T09:26:57.569Z,9.88
2022-11-30T09:29:25.485Z,8.13
2022-11-30T09:31:54.676Z,10.02
2022-11-30T09:34:22.729Z,8.05
2022-11-30T09:36:50.490Z,7.38
2022-11-30T09:39:18.279Z,6.82
2022-11-30T09:42:04.418Z,6.57
2022-11-30T09:44:45.161Z,7.65
2022-11-30T09:47:36.040Z,14.18
2022-11-30T09:50:11.639Z,12.38
2022-11-30T09:52:44.227Z,12.23
2022-11-30T09:55:18.685Z,16.58
2022-11-30T09:57:48.380Z,8.90
2022-11-30T10:00:19.132Z,9.35
2022-11-30T10:02:50.555Z,8.63
2022-11-30T10:05:21.597Z,14.20
2022-11-30T10:08:12.178Z,9.18
2022-11-30T10:10:42.081Z,7.95
2022-11-30T10:13:39.290Z,10.55
2022-11-30T10:16:18.201Z,14.80
2022-11-30T10:19:00.218Z,12.10
2022-11-30T10:21:40.968Z,7.30
2022-11-30T10:24:23.288Z,10.90
2022-11-30T10:26:55.614Z,8.93
2022-11-30T10:29:31.467Z,8.93
2022-11-30T10:32:01.213Z,9.52
2022-11-30T10:34:35.642Z,9.43
2022-11-30T10:37:11.106Z,9.93
2022-11-30T10:39:44.826Z,9.57
2022-11-30T10:42:17.422Z,9.07
2022-11-30T10:44:54.082Z,9.02
2022-11-30T10:47:27.178Z,14.15
2022-11-30T10:49:56.358Z,14.70
2022-11-30T10:52:27.285Z,13.90
2022-11-30T10:55:04.295Z,14.40
2022-11-30T10:57:34.114Z,10.13
2022-11-30T11:00:06.630Z,16.55
2022-11-30T11:02:41.618Z,17.45
2022-11-30T11:05:22.773Z,13.90
2022-11-30T11:07:55.233Z,15.30
2022-11-30T11:10:29.356Z,12.20
2022-11-30T11:12:57.727Z,19.33
2022-11-30T11:15:27.270Z,12.63
2022-11-30T11:18:12.532Z,11.15
2022-11-30T11:20:43.361Z,18.70
2022-11-30T11:23:23.755Z,12.57
2022-11-30T11:25:53.227Z,11.57
2022-11-30T11:28:22.961Z,10.50
2022-11-30T11:30:53.844Z,9.30
2022-11-30T11:33:24.512Z,10.60
2022-11-30T11:35:56.165Z,16.27
2022-11-30T11:38:28.253Z,16.42
2022-11-30T11:40:58.790Z,10.18
2022-11-30T11:43:29.214Z,10.88
2022-11-30T11:46:02.071Z,9.45
2022-11-30T11:48:39.310Z,12.65
2022-11-30T11:51:11.070Z,19.15
2022-11-30T11:53:50.050Z,14.93
2022-11-30T11:56:26.468Z,13.68
2022-11-30T11:58:59.775Z,12.55
2022-11-30T12:01:50.211Z,12.68
2022-11-30T12:04:33.112Z,18.98
2022-11-30T12:07:12.570Z,12.65
2022-11-30T12:09:55.359Z,10.55
2022-11-30T12:12:23.221Z,16.17
2022-11-30T12:14:51.090Z,14.27
2022-11-30T12:17:40.293Z,14.10
2022-11-30T12:20:23.660Z,21.48
2022-11-30T12:23:09.807Z,10.95
2022-11-30T12:25:41.829Z,9.75
2022-11-30T12:28:21.891Z,15.20
2022-11-30T12:31:04.712Z,11.90
2022-11-30T12:33:47.522Z,10.38
2022-11-30T12:36:25.577Z,11.95
2022-11-30T12:39:01.103Z,9.80
2022-11-30T12:41:37.499Z,13.15
2022-11-30T12:44:41.779Z,10.93
2022-11-30T12:47:26.714Z,10.82
2022-11-30T12:50:09.993Z,13.80
2022-11-30T12:52:49.599Z,17.40
2022-11-30T12:55:31.630Z,15.85
2022-11-30T12:58:09.079Z,14.38
2022-11-30T13:00:46.873Z,9.48
2022-11-30T13:03:42.644Z,13.07
2022-11-30T13:06:15.646Z,12.27
2022-11-30T13:08:58.149Z,16.23
2022-11-30T13:11:33.235Z,12.27
2022-11-30T13:14:01.967Z,9.60
2022-11-30T13:16:32.489Z,8.15
2022-11-30T13:19:09.439Z,8.85
2022-11-30T13:21:43.053Z,11.10
2022-11-30T13:24:17.619Z,7.63
2022-11-30T13:26:53.029Z,9.80
2022-11-30T13:29:37.054Z,15.23
2022-11-30T13:32:27.534Z,14.80
2022-11-30T13:35:46.429Z,13.93
2022-11-30T13:38:36.406Z,9.52
2022-11-30T13:41:07.118Z,12.82
2022-11-30T13:43:41.785Z,11.43
2022-11-30T13:46:16.619Z,17.75
2022-11-30T13:48:46.039Z,10.40
2022-11-30T13:51:15.046Z,9.93
2022-11-30T13:53:43.186Z,20.80
2022-11-30T13:56:35.387Z,13.98
2022-11-30T13:59:41.350Z,11.02
2022-11-30T14:02:59.128Z,9.93
2022-11-30T14:05:38.113Z,13.02
2022-11-30T14:08:32.634Z,12.30
2022-11-30T14:11:34.121Z,10.95
2022-11-30T14:14:38.447Z,9.57
2022-11-30T14:17:19.590Z,10.43
2022-11-30T14:19:51.803Z,9.85
2022-11-30T14:22:20.166Z,9.50
2022-11-30T14:24:49.905Z,8.45
2022-11-30T14:27:22.646Z,8.73
2022-11-30T14:29:53.769Z,14.88
2022-11-30T14:32:34.972Z,12.02
2022-11-30T14:35:09.317Z,11.10
2022-11-30T14:40:11.962Z,7.18
2022-11-30T14:42:49.313Z,8.10
2022-11-30T14:45:20.924Z,7.60
2022-11-30T14:47:52.578Z,6.40
2022-11-30T14:50:24.281Z,9.75
2022-11-30T14:53:17.856Z,8.27
2022-11-30T14:55:51.728Z,6.35
2022-11-30T14:58:29.708Z,5.70
2022-11-30T15:00:59.412Z,8.68
2022-11-30T15:03:34.616Z,6.78
2022-11-30T15:06:06.837Z,7.68
2022-11-30T15:08:38.232Z,10.25
2022-11-30T15:11:08.383Z,6.95
2022-11-30T15:13:40.536Z,8.07
2022-11-30T15:16:17.751Z,8.57
2022-11-30T15:18:47.702Z,7.07
2022-11-30T15:21:19.953Z,8.75
2022-11-30T15:23:51.223Z,9.00
2022-11-30T15:26:23.785Z,10.80
2022-11-30T15:28:57.523Z,11.77
2022-11-30T15:31:26.924Z,7.93
2022-11-30T15:33:56.222Z,11.82
2022-11-30T15:36:32.841Z,9.52
2022-11-30T15:39:04.713Z,13.38
2022-11-30T15:41:34.386Z,8.60
2022-11-30T15:44:03.140Z,10.95
2022-11-30T15:46:34.840Z,10.25
2022-11-30T15:49:18.190Z,14.55
2022-11-30T15:51:54.507Z,14.45
2022-11-30T15:54:47.558Z,12.20
2022-11-30T15:57:15.937Z,13.75
2022-11-30T15:59:44.362Z,16.17
2022-11-30T16:02:27.892Z,12.95
2022-11-30T16:05:23.932Z,11.80
2022-11-30T16:07:55.470Z,12.20
2022-11-30T16:10:25.791Z,8.38
2022-11-30T16:12:55.553Z,10.15
2022-11-30T16:15:26.022Z,10.27
2022-11-30T16:17:57.032Z,11.48
2022-11-30T16:20:26.380Z,9.88
2022-11-30T16:22:54.241Z,14.52
2022-11-30T16:25:24.904Z,13.77
2022-11-30T16:27:53.238Z,16.63
2022-11-30T16:30:23.301Z,11.25
2022-11-30T16:32:51.644Z,10.18
2022-11-30T16:35:23.201Z,12.38
2022-11-30T16:37:53.022Z,8.85
2022-11-30T16:40:21.346Z,7.45
2022-11-30T16:42:50.644Z,6.43
2022-11-30T16:45:21.293Z,11.40
2022-11-30T16:47:49.361Z,6.88
2022-11-30T16:50:17.768Z,7.30
2022-11-30T16:52:46.086Z,8.32
2022-11-30T16:55:16.716Z,6.38
2022-11-30T16:57:45.634Z,8.85
2022-11-30T17:00:16.654Z,5.93
2022-11-30T17:02:49.608Z,6.32
2022-11-30T17:05:17.790Z,7.00
2022-11-30T17:07:45.734Z,9.73
2022-11-30T17:10:15.172Z,9.90
2022-11-30T17:12:43.054Z,7.70
2022-11-30T17:15:15.628Z,8.10
2022-11-30T17:17:43.782Z,11.52
2022-11-30T17:20:13.032Z,7.82
2022-11-30T17:22:41.244Z,7.95
2022-11-30T17:25:14.082Z,7.88
2022-11-30T17:27:43.634Z,9.65
2022-11-30T17:30:12.636Z,8.88
2022-11-30T17:32:40.587Z,5.03
2022-11-30T17:35:09.310Z,6.40
2022-11-30T17:37:37.231Z,7.65
2022-11-30T17:40:07.024Z,5.22
2022-11-30T17:42:35.370Z,4.95
2022-11-30T17:45:05.121Z,6.43
2022-11-30T17:47:33.133Z,5.45
2022-11-30T17:50:01.337Z,8.15
2022-11-30T17:52:29.179Z,8.45
2022-11-30T17:54:57.008Z,8.77
2022-11-30T17:57:24.868Z,10.52
2022-11-30T17:59:52.696Z,9.38
2022-11-30T18:02:21.946Z,8.90
2022-11-30T18:04:50.563Z,9.82
2022-11-30T18:07:20.039Z,12.75
2022-11-30T18:09:49.411Z,9.05
2022-11-30T18:12:17.264Z,10.35
2022-11-30T18:14:46.279Z,16.42
2022-11-30T18:17:14.492Z,13.15
2022-11-30T18:19:43.730Z,12.85
2022-11-30T18:22:11.518Z,12.00
2022-11-30T18:24:39.390Z,15.45
2022-11-30T18:27:07.188Z,11.90
2022-11-30T18:29:34.972Z,12.35
2022-11-30T18:32:02.837Z,12.65
2022-11-30T18:34:30.580Z,10.23
2022-11-30T18:37:04.101Z,11.30
2022-11-30T18:39:32.017Z,16.50
2022-11-30T18:41:59.865Z,18.63
2022-11-30T18:44:27.620Z,18.48
2022-11-30T18:46:55.455Z,13.35
2022-11-30T18:49:23.711Z,21.60
2022-11-30T18:51:51.517Z,17.77
2022-11-30T18:54:20.759Z,24.10
2022-11-30T18:56:48.493Z,13.43
2022-11-30T18:59:16.616Z,13.40
2022-11-30T19:01:44.472Z,13.23
2022-11-30T19:04:12.694Z,10.80
2022-11-30T19:06:42.718Z,14.13
2022-11-30T19:09:13.595Z,17.33
2022-11-30T19:11:44.055Z,14.82
2022-11-30T19:14:14.503Z,15.40
2022-11-30T19:16:42.748Z,20.05
2022-11-30T19:19:13.845Z,21.67
2022-11-30T19:21:43.714Z,20.42
2022-11-30T19:24:11.573Z,11.15
2022-11-30T19:26:40.158Z,12.20
2022-11-30T19:29:11.730Z,13.43
2022-11-30T19:31:39.679Z,19.27
2022-11-30T19:34:12.634Z,19.95
2022-11-30T19:36:41.633Z,13.90
2022-11-30T19:39:11.581Z,11.70
2022-11-30T19:41:39.367Z,12.85
2022-11-30T19:44:07.272Z,12.60
2022-11-30T19:46:36.557Z,18.05
2022-11-30T19:49:04.650Z,17.73
2022-11-30T19:51:32.828Z,19.00
2022-11-30T19:54:01.894Z,15.68
2022-11-30T19:56:31.210Z,14.52
2022-11-30T19:59:04.692Z,14.75
2022-11-30T20:01:34.053Z,19.92
2022-11-30T20:04:04.152Z,19.73
2022-11-30T20:06:35.692Z,11.48
2022-11-30T20:09:04.242Z,20.23
2022-11-30T20:11:32.735Z,10.50
2022-11-30T20:14:00.786Z,17.50
2022-11-30T20:16:29.361Z,12.93
2022-11-30T20:19:00.610Z,11.32
2022-11-30T20:21:32.228Z,14.45
2022-11-30T20:24:02.039Z,11.57
2022-11-30T20:26:31.696Z,16.70
2022-11-30T20:29:01.404Z,13.90
2022-11-30T20:31:30.248Z,26.27
2022-11-30T20:33:58.189Z,13.23
2022-11-30T20:36:26.122Z,14.63
2022-11-30T20:38:55.741Z,17.15
2022-11-30T20:41:25.522Z,15.30
2022-11-30T20:43:54.100Z,12.32
2022-11-30T20:46:23.686Z,16.13
2022-11-30T20:48:52.909Z,17.10
2022-11-30T20:51:30.862Z,15.82
2022-11-30T20:54:02.544Z,12.00
2022-11-30T20:56:30.393Z,14.90
2022-11-30T20:59:01.746Z,20.25
2022-11-30T21:01:29.814Z,14.05
2022-11-30T21:03:59.449Z,13.43
2022-11-30T21:06:27.543Z,13.13
2022-11-30T21:08:55.332Z,15.82
2022-11-30T21:11:24.763Z,13.00
2022-11-30T21:13:52.731Z,13.85
2022-11-30T21:16:27.649Z,10.18
2022-11-30T21:18:57.899Z,16.45
2022-11-30T21:21:27.331Z,17.73
2022-11-30T21:23:55.336Z,17.90
2022-11-30T21:26:26.466Z,17.98
2022-11-30T21:28:56.720Z,22.33
2022-11-30T21:31:24.813Z,19.85
2022-11-30T21:33:53.943Z,16.08
2022-11-30T21:36:23.561Z,11.95
2022-11-30T21:39:01.056Z,14.70
2022-11-30T21:41:34.642Z,20.60
2022-11-30T21:44:03.149Z,18.38
2022-11-30T21:46:31.165Z,24.63
2022-11-30T21:48:59.277Z,15.52
2022-11-30T21:51:29.042Z,15.20
2022-11-30T21:53:58.794Z,21.70
2022-11-30T21:56:28.543Z,14.57
2022-11-30T21:58:58.472Z,12.13
2022-11-30T22:01:29.145Z,12.65
2022-11-30T22:03:58.960Z,12.93
2022-11-30T22:06:29.746Z,15.13
2022-11-30T22:09:03.329Z,11.88
2022-11-30T22:11:32.095Z,16.83
2022-11-30T22:14:01.569Z,11.52
2022-11-30T22:16:35.665Z,15.48
2022-11-30T22:19:04.764Z,12.93
2022-11-30T22:21:33.348Z,10.75
2022-11-30T22:24:03.339Z,10.02
2022-11-30T22:26:32.398Z,9.95
2022-11-30T22:29:03.447Z,11.35
2022-11-30T22:31:33.403Z,9.20
2022-11-30T22:34:01.563Z,12.18
2022-11-30T22:36:30.927Z,11.18
2022-11-30T22:39:00.600Z,12.35
2022-11-30T22:41:29.569Z,11.95
2022-11-30T22:43:58.075Z,12.00
2022-11-30T22:46:29.100Z,9.98
2022-11-30T22:48:59.402Z,9.52
2022-11-30T22:51:29.345Z,10.38
2022-11-30T22:53:57.845Z,10.75
2022-11-30T22:56:28.558Z,9.73
2022-11-30T22:58:58.920Z,11.65
2022-11-30T23:01:30.449Z,12.70
2022-11-30T23:04:03.168Z,10.18
2022-11-30T23:06:31.109Z,10.07
2022-11-30T23:08:59.437Z,12.18
2022-11-30T23:11:28.270Z,12.32
2022-11-30T23:13:56.366Z,11.10
2022-11-30T23:16:24.316Z,10.63
2022-11-30T23:18:57.019Z,11.13
2022-11-30T23:21:26.749Z,8.88
2022-11-30T23:23:57.876Z,10.57
2022-11-30T23:26:27.956Z,14.55
2022-11-30T23:28:59.142Z,16.50
2022-11-30T23:31:33.751Z,12.43
2022-11-30T23:34:06.027Z,10.70
2022-11-30T23:36:34.628Z,10.88
2022-11-30T23:39:05.224Z,15.13
2022-11-30T23:41:34.067Z,11.23
2022-11-30T23:44:02.377Z,11.35
2022-11-30T23:46:30.307Z,9.82
2022-11-30T23:48:58.418Z,11.98
2022-11-30T23:51:28.112Z,13.60
2022-11-30T23:53:56.456Z,12.57
2022-11-30T23:56:24.821Z,13.77
2022-11-30T23:58:53.242Z,10.85
